N68UW KTVL-KJAC
Flight info
| Callsign | N68UW |
|---|---|
| Flight time | 1h 13m |
| Altitude | 41000 |
| Route | FMG J32 MLD |
| Aircraft | CL60/M-SBDE1E2E3FGHIJ1J3J4J5J7M3P2RWXYZ/LB1V1D1 |
Departure
| Time | 2026-04-26 22:17 |
|---|---|
| Airport | Lake Tahoe Airport (KTVL) |
Arrival
| Time | 2026-04-26 23:31 |
|---|---|
| Airport | Jackson Hole Airport (KJAC) |
| Time | Latitude | Longitude | Altitude | Speed | Heading |
|---|---|---|---|---|---|
| 2026-04-26 22:03 | 38.89301 | -119.99789 | 6273 ft | 0 kts | 11° |
| 2026-04-26 22:14 | 38.89315 | -119.99777 | 6273 ft | 7 kts | 52° |
| 2026-04-26 22:14 | 38.89366 | -119.99725 | 6272 ft | 12 kts | 7° |
| 2026-04-26 22:14 | 38.89436 | -119.99712 | 6272 ft | 6 kts | 12° |
| 2026-04-26 22:14 | 38.89498 | -119.99689 | 6272 ft | 12 kts | 36° |
| 2026-04-26 22:15 | 38.89506 | -119.99611 | 6271 ft | 7 kts | 47° |
| 2026-04-26 22:15 | 38.89585 | -119.99583 | 6271 ft | 17 kts | 12° |
| 2026-04-26 22:15 | 38.89735 | -119.99538 | 6270 ft | 25 kts | 12° |
| 2026-04-26 22:15 | 38.89923 | -119.99486 | 6269 ft | 29 kts | 13° |
| 2026-04-26 22:16 | 38.90138 | -119.99423 | 6268 ft | 33 kts | 13° |
| 2026-04-26 22:16 | 38.90378 | -119.99352 | 6267 ft | 33 kts | 13° |
| 2026-04-26 22:16 | 38.90526 | -119.99295 | 6266 ft | 12 kts | 53° |
| 2026-04-26 22:16 | 38.90506 | -119.99212 | 6266 ft | 5 kts | 174° |
| 2026-04-26 22:17 | 38.90375 | -119.99248 | 6266 ft | 58 kts | 193° |
| 2026-04-26 22:17 | 38.89665 | -119.99451 | 6272 ft | 144 kts | 192° |
| 2026-04-26 22:17 | 38.88572 | -119.99748 | 6836 ft | 173 kts | 190° |
| 2026-04-26 22:17 | 38.87395 | -119.99316 | 7685 ft | 198 kts | 136° |
| 2026-04-26 22:18 | 38.86978 | -119.97617 | 8594 ft | 226 kts | 82° |
| 2026-04-26 22:18 | 38.87744 | -119.95887 | 9805 ft | 232 kts | 39° |
| 2026-04-26 22:18 | 38.89062 | -119.95090 | 10890 ft | 228 kts | 2° |
| 2026-04-26 22:18 | 38.90662 | -119.94942 | 11696 ft | 245 kts | 8° |
| 2026-04-26 22:19 | 38.92348 | -119.94263 | 12537 ft | 264 kts | 17° |
| 2026-04-26 22:19 | 38.94138 | -119.93414 | 13243 ft | 287 kts | 17° |
| 2026-04-26 22:19 | 38.96096 | -119.92484 | 13682 ft | 318 kts | 17° |
| 2026-04-26 22:19 | 38.98246 | -119.91496 | 14251 ft | 342 kts | 17° |
| 2026-04-26 22:20 | 39.00515 | -119.90409 | 15197 ft | 351 kts | 18° |
| 2026-04-26 22:20 | 39.02816 | -119.89290 | 15993 ft | 363 kts | 18° |
| 2026-04-26 22:20 | 39.05217 | -119.88094 | 16733 ft | 376 kts | 18° |
| 2026-04-26 22:20 | 39.07647 | -119.86877 | 17623 ft | 382 kts | 18° |
| 2026-04-26 22:21 | 39.10154 | -119.85645 | 18363 ft | 391 kts | 18° |
| 2026-04-26 22:21 | 39.12744 | -119.84416 | 19143 ft | 398 kts | 17° |
| 2026-04-26 22:21 | 39.15344 | -119.83212 | 19920 ft | 404 kts | 17° |
| 2026-04-26 22:21 | 39.18005 | -119.81977 | 20699 ft | 409 kts | 17° |
| 2026-04-26 22:22 | 39.20685 | -119.80734 | 21434 ft | 415 kts | 17° |
| 2026-04-26 22:22 | 39.23414 | -119.79469 | 22179 ft | 419 kts | 17° |
| 2026-04-26 22:22 | 39.26173 | -119.78188 | 22867 ft | 424 kts | 17° |
| 2026-04-26 22:22 | 39.28954 | -119.76897 | 23535 ft | 429 kts | 17° |
| 2026-04-26 22:23 | 39.31795 | -119.75577 | 24207 ft | 435 kts | 17° |
| 2026-04-26 22:23 | 39.34645 | -119.74252 | 24893 ft | 439 kts | 17° |
| 2026-04-26 22:23 | 39.37552 | -119.72900 | 25577 ft | 444 kts | 17° |
| 2026-04-26 22:23 | 39.40436 | -119.71558 | 26187 ft | 448 kts | 17° |
| 2026-04-26 22:24 | 39.43384 | -119.70186 | 26781 ft | 452 kts | 17° |
| 2026-04-26 22:24 | 39.46364 | -119.68797 | 27320 ft | 456 kts | 16° |
| 2026-04-26 22:24 | 39.49331 | -119.67400 | 27845 ft | 460 kts | 18° |
| 2026-04-26 22:24 | 39.52198 | -119.65482 | 28379 ft | 467 kts | 31° |
| 2026-04-26 22:25 | 39.54670 | -119.62714 | 28832 ft | 476 kts | 46° |
| 2026-04-26 22:25 | 39.56721 | -119.59240 | 29240 ft | 482 kts | 52° |
| 2026-04-26 22:25 | 39.58723 | -119.55647 | 29669 ft | 485 kts | 52° |
| 2026-04-26 22:25 | 39.60712 | -119.52083 | 30238 ft | 484 kts | 52° |
| 2026-04-26 22:26 | 39.62719 | -119.48484 | 30859 ft | 482 kts | 52° |
| 2026-04-26 22:26 | 39.64705 | -119.44919 | 31389 ft | 480 kts | 52° |
| 2026-04-26 22:26 | 39.66672 | -119.41384 | 31905 ft | 478 kts | 52° |
| 2026-04-26 22:26 | 39.68666 | -119.37797 | 32393 ft | 477 kts | 52° |
| 2026-04-26 22:27 | 39.70633 | -119.34253 | 32831 ft | 476 kts | 52° |
| 2026-04-26 22:27 | 39.72618 | -119.30673 | 33196 ft | 477 kts | 52° |
| 2026-04-26 22:27 | 39.74583 | -119.27125 | 33488 ft | 478 kts | 52° |
| 2026-04-26 22:27 | 39.76525 | -119.23616 | 33788 ft | 478 kts | 52° |
| 2026-04-26 22:28 | 39.78472 | -119.20092 | 34105 ft | 478 kts | 52° |
| 2026-04-26 22:28 | 39.80442 | -119.16522 | 34407 ft | 478 kts | 52° |
| 2026-04-26 22:28 | 39.82371 | -119.13023 | 34687 ft | 478 kts | 52° |
| 2026-04-26 22:28 | 39.84309 | -119.09506 | 34975 ft | 478 kts | 52° |
| 2026-04-26 22:29 | 39.86257 | -119.05965 | 35251 ft | 478 kts | 52° |
| 2026-04-26 22:29 | 39.88174 | -119.02476 | 35540 ft | 477 kts | 53° |
| 2026-04-26 22:29 | 39.90116 | -118.98937 | 35846 ft | 476 kts | 52° |
| 2026-04-26 22:29 | 39.92043 | -118.95424 | 36138 ft | 475 kts | 53° |
| 2026-04-26 22:30 | 39.93962 | -118.91921 | 36408 ft | 475 kts | 53° |
| 2026-04-26 22:30 | 39.95895 | -118.88387 | 36635 ft | 476 kts | 53° |
| 2026-04-26 22:30 | 39.97811 | -118.84881 | 36849 ft | 476 kts | 53° |
| 2026-04-26 22:30 | 39.99736 | -118.81353 | 37077 ft | 476 kts | 53° |
| 2026-04-26 22:31 | 40.01682 | -118.77786 | 37281 ft | 477 kts | 53° |
| 2026-04-26 22:31 | 40.03606 | -118.74252 | 37478 ft | 477 kts | 53° |
| 2026-04-26 22:31 | 40.05543 | -118.70692 | 37659 ft | 478 kts | 53° |
| 2026-04-26 22:31 | 40.07466 | -118.67154 | 37840 ft | 478 kts | 53° |
| 2026-04-26 22:32 | 40.09392 | -118.63604 | 37998 ft | 479 kts | 53° |
| 2026-04-26 22:32 | 40.11287 | -118.60017 | 38165 ft | 480 kts | 56° |
| 2026-04-26 22:32 | 40.12868 | -118.56220 | 38357 ft | 481 kts | 64° |
| 2026-04-26 22:32 | 40.14101 | -118.52121 | 38574 ft | 481 kts | 69° |
| 2026-04-26 22:33 | 40.15236 | -118.48007 | 38744 ft | 482 kts | 69° |
| 2026-04-26 22:33 | 40.17530 | -118.39696 | 39120 ft | 482 kts | 69° |
| 2026-04-26 22:33 | 40.18664 | -118.35581 | 39317 ft | 482 kts | 69° |
| 2026-04-26 22:34 | 40.19790 | -118.31485 | 39503 ft | 481 kts | 70° |
| 2026-04-26 22:34 | 40.20931 | -118.27323 | 39650 ft | 481 kts | 70° |
| 2026-04-26 22:34 | 40.22048 | -118.23247 | 39826 ft | 480 kts | 70° |
| 2026-04-26 22:34 | 40.23171 | -118.19139 | 39959 ft | 481 kts | 70° |
| 2026-04-26 22:35 | 40.24291 | -118.15035 | 40071 ft | 481 kts | 70° |
| 2026-04-26 22:35 | 40.25430 | -118.10852 | 40201 ft | 481 kts | 70° |
| 2026-04-26 22:35 | 40.26546 | -118.06747 | 40334 ft | 481 kts | 70° |
| 2026-04-26 22:35 | 40.27661 | -118.02643 | 40463 ft | 481 kts | 70° |
| 2026-04-26 22:36 | 40.28779 | -117.98517 | 40587 ft | 481 kts | 70° |
| 2026-04-26 22:36 | 40.29901 | -117.94367 | 40716 ft | 480 kts | 70° |
| 2026-04-26 22:36 | 40.31011 | -117.90253 | 40838 ft | 480 kts | 70° |
| 2026-04-26 22:37 | 40.33229 | -117.82021 | 40836 ft | 485 kts | 70° |
| 2026-04-26 22:37 | 40.35482 | -117.73629 | 40822 ft | 489 kts | 70° |
| 2026-04-26 22:38 | 40.37733 | -117.65214 | 40819 ft | 492 kts | 70° |
| 2026-04-26 22:38 | 40.39994 | -117.56737 | 40822 ft | 494 kts | 70° |
| 2026-04-26 22:39 | 40.42244 | -117.48265 | 40814 ft | 494 kts | 70° |
| 2026-04-26 22:39 | 40.44494 | -117.39774 | 40818 ft | 494 kts | 70° |
| 2026-04-26 22:40 | 40.46743 | -117.31250 | 40818 ft | 494 kts | 71° |
| 2026-04-26 22:40 | 40.48975 | -117.22762 | 40827 ft | 493 kts | 71° |
| 2026-04-26 22:41 | 40.51199 | -117.14276 | 40829 ft | 494 kts | 71° |
| 2026-04-26 22:41 | 40.53424 | -117.05757 | 40827 ft | 494 kts | 71° |
| 2026-04-26 22:42 | 40.55651 | -116.97199 | 40833 ft | 494 kts | 71° |
| 2026-04-26 22:42 | 40.58245 | -116.88799 | 40846 ft | 493 kts | 62° |
| 2026-04-26 22:43 | 40.61399 | -116.80810 | 40848 ft | 493 kts | 62° |
| 2026-04-26 22:43 | 40.64540 | -116.72810 | 40846 ft | 494 kts | 62° |
| 2026-04-26 22:44 | 40.67681 | -116.64783 | 40829 ft | 494 kts | 62° |
| 2026-04-26 22:44 | 40.70809 | -116.56765 | 40830 ft | 494 kts | 62° |
| 2026-04-26 22:45 | 40.73936 | -116.48724 | 40833 ft | 493 kts | 62° |
| 2026-04-26 22:45 | 40.77060 | -116.40665 | 40836 ft | 493 kts | 62° |
| 2026-04-26 22:46 | 40.80175 | -116.32606 | 40831 ft | 493 kts | 63° |
| 2026-04-26 22:46 | 40.83279 | -116.24555 | 40822 ft | 493 kts | 63° |
| 2026-04-26 22:47 | 40.86383 | -116.16479 | 40833 ft | 493 kts | 63° |
| 2026-04-26 22:47 | 40.89478 | -116.08404 | 40826 ft | 494 kts | 63° |
| 2026-04-26 22:48 | 40.92556 | -116.00347 | 40822 ft | 494 kts | 63° |
| 2026-04-26 22:48 | 40.95651 | -115.92226 | 40815 ft | 494 kts | 63° |
| 2026-04-26 22:49 | 40.98742 | -115.84091 | 40819 ft | 494 kts | 63° |
| 2026-04-26 22:49 | 41.01805 | -115.76008 | 40803 ft | 494 kts | 63° |
| 2026-04-26 22:50 | 41.04877 | -115.67879 | 40810 ft | 494 kts | 63° |
| 2026-04-26 22:50 | 41.07922 | -115.59800 | 40816 ft | 494 kts | 63° |
| 2026-04-26 22:51 | 41.10977 | -115.51668 | 40823 ft | 494 kts | 63° |
| 2026-04-26 22:51 | 41.14032 | -115.43516 | 40822 ft | 494 kts | 63° |
| 2026-04-26 22:52 | 41.17081 | -115.35355 | 40820 ft | 494 kts | 63° |
| 2026-04-26 22:52 | 41.20123 | -115.27191 | 40820 ft | 494 kts | 64° |
| 2026-04-26 22:53 | 41.23159 | -115.19018 | 40822 ft | 494 kts | 63° |
| 2026-04-26 22:53 | 41.26214 | -115.10772 | 40820 ft | 494 kts | 63° |
| 2026-04-26 22:54 | 41.29239 | -115.02583 | 40810 ft | 495 kts | 64° |
| 2026-04-26 22:54 | 41.32256 | -114.94394 | 40808 ft | 495 kts | 64° |
| 2026-04-26 22:55 | 41.35251 | -114.86238 | 40801 ft | 495 kts | 64° |
| 2026-04-26 22:55 | 41.38277 | -114.77977 | 40796 ft | 495 kts | 64° |
| 2026-04-26 22:56 | 41.41279 | -114.69756 | 40794 ft | 495 kts | 64° |
| 2026-04-26 22:56 | 41.44271 | -114.61539 | 40797 ft | 495 kts | 63° |
| 2026-04-26 22:57 | 41.47249 | -114.53338 | 40804 ft | 495 kts | 64° |
| 2026-04-26 22:57 | 41.50236 | -114.45087 | 40803 ft | 495 kts | 64° |
| 2026-04-26 22:58 | 41.53215 | -114.36835 | 40801 ft | 495 kts | 63° |
| 2026-04-26 22:58 | 41.56203 | -114.28535 | 40800 ft | 495 kts | 64° |
| 2026-04-26 22:59 | 41.59168 | -114.20273 | 40797 ft | 495 kts | 64° |
| 2026-04-26 22:59 | 41.62128 | -114.12002 | 40791 ft | 495 kts | 64° |
| 2026-04-26 23:00 | 41.65093 | -114.03691 | 40782 ft | 496 kts | 64° |
| 2026-04-26 23:00 | 41.68050 | -113.95380 | 40776 ft | 496 kts | 64° |
| 2026-04-26 23:01 | 41.71005 | -113.87049 | 40776 ft | 496 kts | 64° |
| 2026-04-26 23:01 | 41.73953 | -113.78710 | 40770 ft | 496 kts | 64° |
| 2026-04-26 23:02 | 41.76889 | -113.70381 | 40772 ft | 495 kts | 64° |
| 2026-04-26 23:02 | 41.79818 | -113.62049 | 40781 ft | 495 kts | 64° |
| 2026-04-26 23:03 | 41.82742 | -113.53705 | 40789 ft | 495 kts | 64° |
| 2026-04-26 23:03 | 41.85652 | -113.45377 | 40792 ft | 495 kts | 64° |
| 2026-04-26 23:04 | 41.88563 | -113.37019 | 40793 ft | 495 kts | 64° |
| 2026-04-26 23:04 | 41.91499 | -113.28567 | 40783 ft | 495 kts | 65° |
| 2026-04-26 23:05 | 41.94394 | -113.20206 | 40777 ft | 494 kts | 65° |
| 2026-04-26 23:05 | 41.97284 | -113.11834 | 40782 ft | 494 kts | 65° |
| 2026-04-26 23:06 | 42.00167 | -113.03457 | 40780 ft | 493 kts | 65° |
| 2026-04-26 23:06 | 42.03032 | -112.95107 | 40775 ft | 493 kts | 65° |
| 2026-04-26 23:07 | 42.05888 | -112.86756 | 40774 ft | 494 kts | 65° |
| 2026-04-26 23:07 | 42.08752 | -112.78357 | 40775 ft | 494 kts | 65° |
| 2026-04-26 23:08 | 42.11610 | -112.69952 | 40773 ft | 494 kts | 65° |
| 2026-04-26 23:08 | 42.14457 | -112.61553 | 40774 ft | 494 kts | 65° |
| 2026-04-26 23:09 | 42.17294 | -112.53165 | 40772 ft | 494 kts | 65° |
| 2026-04-26 23:09 | 42.20812 | -112.45243 | 40760 ft | 494 kts | 51° |
| 2026-04-26 23:10 | 42.25574 | -112.38563 | 40756 ft | 492 kts | 39° |
| 2026-04-26 23:10 | 42.30748 | -112.32490 | 40500 ft | 499 kts | 40° |
| 2026-04-26 23:10 | 42.33399 | -112.29369 | 39767 ft | 507 kts | 40° |
| 2026-04-26 23:11 | 42.36048 | -112.26244 | 39038 ft | 508 kts | 40° |
| 2026-04-26 23:11 | 42.38677 | -112.23140 | 38330 ft | 509 kts | 40° |
| 2026-04-26 23:11 | 42.41351 | -112.19979 | 37616 ft | 511 kts | 40° |
| 2026-04-26 23:11 | 42.44019 | -112.16821 | 36827 ft | 508 kts | 40° |
| 2026-04-26 23:12 | 42.46616 | -112.13743 | 36147 ft | 500 kts | 41° |
| 2026-04-26 23:12 | 42.49206 | -112.10670 | 35450 ft | 492 kts | 41° |
| 2026-04-26 23:12 | 42.51753 | -112.07645 | 34748 ft | 484 kts | 41° |
| 2026-04-26 23:12 | 42.54288 | -112.04633 | 34049 ft | 484 kts | 41° |
| 2026-04-26 23:13 | 42.56784 | -112.01662 | 33310 ft | 486 kts | 41° |
| 2026-04-26 23:13 | 42.59320 | -111.98641 | 32596 ft | 484 kts | 41° |
| 2026-04-26 23:13 | 42.61828 | -111.95651 | 31901 ft | 479 kts | 41° |
| 2026-04-26 23:13 | 42.64304 | -111.92691 | 31199 ft | 475 kts | 41° |
| 2026-04-26 23:14 | 42.66772 | -111.89740 | 30489 ft | 471 kts | 42° |
| 2026-04-26 23:14 | 42.69224 | -111.86803 | 29723 ft | 462 kts | 42° |
| 2026-04-26 23:14 | 42.71596 | -111.83961 | 29027 ft | 451 kts | 42° |
| 2026-04-26 23:14 | 42.73886 | -111.81213 | 28332 ft | 441 kts | 41° |
| 2026-04-26 23:15 | 42.76167 | -111.78473 | 27685 ft | 435 kts | 41° |
| 2026-04-26 23:15 | 42.78445 | -111.75735 | 26967 ft | 433 kts | 41° |
| 2026-04-26 23:15 | 42.80664 | -111.73061 | 26275 ft | 431 kts | 41° |
| 2026-04-26 23:15 | 42.82904 | -111.70363 | 25573 ft | 429 kts | 41° |
| 2026-04-26 23:16 | 42.85138 | -111.67667 | 24852 ft | 426 kts | 41° |
| 2026-04-26 23:16 | 42.87327 | -111.65022 | 24160 ft | 423 kts | 41° |
| 2026-04-26 23:16 | 42.89513 | -111.62380 | 23468 ft | 421 kts | 41° |
| 2026-04-26 23:16 | 42.91704 | -111.59729 | 22772 ft | 418 kts | 41° |
| 2026-04-26 23:17 | 42.93847 | -111.57135 | 22077 ft | 415 kts | 41° |
| 2026-04-26 23:17 | 42.95990 | -111.54536 | 21310 ft | 404 kts | 41° |
| 2026-04-26 23:17 | 42.98033 | -111.52055 | 20643 ft | 391 kts | 41° |
| 2026-04-26 23:17 | 43.00026 | -111.49631 | 20212 ft | 373 kts | 40° |
| 2026-04-26 23:18 | 43.01912 | -111.47336 | 19845 ft | 357 kts | 40° |
| 2026-04-26 23:18 | 43.03741 | -111.45111 | 19642 ft | 353 kts | 40° |
| 2026-04-26 23:18 | 43.05598 | -111.42851 | 19212 ft | 353 kts | 40° |
| 2026-04-26 23:18 | 43.07396 | -111.40660 | 18854 ft | 350 kts | 40° |
| 2026-04-26 23:19 | 43.09220 | -111.38437 | 18466 ft | 347 kts | 40° |
| 2026-04-26 23:19 | 43.10998 | -111.36268 | 18089 ft | 345 kts | 40° |
| 2026-04-26 23:19 | 43.12799 | -111.34068 | 17702 ft | 341 kts | 41° |
| 2026-04-26 23:19 | 43.14561 | -111.31914 | 17316 ft | 337 kts | 41° |
| 2026-04-26 23:20 | 43.16302 | -111.29784 | 16959 ft | 331 kts | 41° |
| 2026-04-26 23:20 | 43.17982 | -111.27724 | 16602 ft | 322 kts | 40° |
| 2026-04-26 23:20 | 43.19628 | -111.25707 | 16249 ft | 315 kts | 41° |
| 2026-04-26 23:20 | 43.21240 | -111.23730 | 15913 ft | 308 kts | 41° |
| 2026-04-26 23:21 | 43.22822 | -111.21785 | 15582 ft | 302 kts | 41° |
| 2026-04-26 23:21 | 43.24371 | -111.19882 | 15239 ft | 296 kts | 40° |
| 2026-04-26 23:21 | 43.25814 | -111.17944 | 14915 ft | 291 kts | 51° |
| 2026-04-26 23:21 | 43.26780 | -111.15504 | 14544 ft | 289 kts | 72° |
| 2026-04-26 23:22 | 43.27049 | -111.12840 | 14204 ft | 285 kts | 93° |
| 2026-04-26 23:22 | 43.26729 | -111.10146 | 13821 ft | 283 kts | 103° |
| 2026-04-26 23:22 | 43.26301 | -111.07578 | 13547 ft | 278 kts | 103° |
| 2026-04-26 23:22 | 43.25876 | -111.04993 | 13233 ft | 274 kts | 103° |
| 2026-04-26 23:23 | 43.25464 | -111.02483 | 12937 ft | 270 kts | 103° |
| 2026-04-26 23:23 | 43.25053 | -110.99992 | 12643 ft | 267 kts | 102° |
| 2026-04-26 23:23 | 43.24648 | -110.97530 | 12347 ft | 263 kts | 102° |
| 2026-04-26 23:23 | 43.24461 | -110.95073 | 12016 ft | 260 kts | 84° |
| 2026-04-26 23:24 | 43.24971 | -110.92722 | 11681 ft | 255 kts | 58° |
| 2026-04-26 23:24 | 43.26082 | -110.90956 | 11571 ft | 239 kts | 35° |
| 2026-04-26 23:24 | 43.27510 | -110.89888 | 11519 ft | 232 kts | 19° |
| 2026-04-26 23:24 | 43.29027 | -110.89147 | 11501 ft | 235 kts | 18° |
| 2026-04-26 23:25 | 43.30577 | -110.88397 | 11439 ft | 234 kts | 18° |
| 2026-04-26 23:25 | 43.32117 | -110.87648 | 11386 ft | 235 kts | 18° |
| 2026-04-26 23:25 | 43.33648 | -110.86905 | 11331 ft | 236 kts | 18° |
| 2026-04-26 23:25 | 43.35191 | -110.86156 | 11274 ft | 236 kts | 18° |
| 2026-04-26 23:26 | 43.36746 | -110.85402 | 11225 ft | 235 kts | 18° |
| 2026-04-26 23:26 | 43.38292 | -110.84661 | 11062 ft | 238 kts | 17° |
| 2026-04-26 23:26 | 43.39833 | -110.83921 | 10650 ft | 234 kts | 17° |
| 2026-04-26 23:26 | 43.41380 | -110.83173 | 10136 ft | 233 kts | 17° |
| 2026-04-26 23:27 | 43.42856 | -110.82456 | 9917 ft | 220 kts | 17° |
| 2026-04-26 23:27 | 43.44284 | -110.81761 | 9626 ft | 212 kts | 17° |
| 2026-04-26 23:27 | 43.45642 | -110.81102 | 9377 ft | 204 kts | 17° |
| 2026-04-26 23:27 | 43.46968 | -110.80459 | 9107 ft | 203 kts | 17° |
| 2026-04-26 23:28 | 43.48287 | -110.79820 | 8831 ft | 202 kts | 17° |
| 2026-04-26 23:28 | 43.49594 | -110.79184 | 8537 ft | 195 kts | 18° |
| 2026-04-26 23:28 | 43.50830 | -110.78584 | 8316 ft | 183 kts | 18° |
| 2026-04-26 23:28 | 43.52000 | -110.78016 | 8063 ft | 173 kts | 18° |
| 2026-04-26 23:29 | 43.53078 | -110.77492 | 7853 ft | 157 kts | 18° |
| 2026-04-26 23:29 | 43.54077 | -110.77007 | 7631 ft | 149 kts | 18° |
| 2026-04-26 23:29 | 43.55042 | -110.76540 | 7439 ft | 146 kts | 18° |
| 2026-04-26 23:29 | 43.56005 | -110.76072 | 7243 ft | 144 kts | 18° |
| 2026-04-26 23:30 | 43.56941 | -110.75616 | 7056 ft | 144 kts | 18° |
| 2026-04-26 23:30 | 43.57885 | -110.75152 | 6870 ft | 143 kts | 18° |
| 2026-04-26 23:30 | 43.58828 | -110.74706 | 6699 ft | 142 kts | 18° |
| 2026-04-26 23:30 | 43.59751 | -110.74255 | 6500 ft | 140 kts | 18° |
| 2026-04-26 23:31 | 43.60627 | -110.73830 | 6434 ft | 117 kts | 19° |
| 2026-04-26 23:31 | 43.61182 | -110.73560 | 6445 ft | 39 kts | 19° |
| 2026-04-26 23:31 | 43.61392 | -110.73457 | 6450 ft | 32 kts | 19° |
| 2026-04-26 23:31 | 43.61518 | -110.73366 | 6454 ft | 14 kts | 69° |
| 2026-04-26 23:32 | 43.61486 | -110.73254 | 6453 ft | 13 kts | 166° |
| 2026-04-26 23:32 | 43.61383 | -110.73300 | 6451 ft | 19 kts | 198° |
| 2026-04-26 23:32 | 43.61237 | -110.73371 | 6448 ft | 25 kts | 199° |
| 2026-04-26 23:32 | 43.61052 | -110.73461 | 6443 ft | 31 kts | 199° |
| 2026-04-26 23:33 | 43.60854 | -110.73557 | 6440 ft | 32 kts | 199° |
| 2026-04-26 23:33 | 43.60626 | -110.73669 | 6435 ft | 27 kts | 200° |
| 2026-04-26 23:33 | 43.60475 | -110.73742 | 6432 ft | 25 kts | 200° |
| 2026-04-26 23:33 | 43.60293 | -110.73831 | 6429 ft | 29 kts | 199° |
| 2026-04-26 23:34 | 43.60139 | -110.73904 | 6427 ft | 19 kts | 200° |
| 2026-04-26 23:34 | 43.60020 | -110.73964 | 6425 ft | 8 kts | 193° |
| 2026-04-26 23:34 | 43.59983 | -110.73899 | 6425 ft | 7 kts | 150° |
| 2026-04-26 23:34 | 43.59915 | -110.73916 | 6424 ft | 9 kts | 155° |
| 2026-04-26 23:35 | 43.59924 | -110.73869 | 6424 ft | 0 kts | 341° |
| 2026-04-26 23:35 | 43.59930 | -110.73872 | 6424 ft | 0 kts | 340° |